x

South Brooks (46132) Wave Buoy

11:00 - Tue 15th Apr 2014 All times are PDT. -7 hours from GMT.

  • Sig Wave height 5.6ft
  • Peak Period 9s
  • Wind
    13mph, 16mph gusts
  • Sea Temp 49°f
  • Ar Temp 49°f
  • Sea Pressure 1013.9mb
  • South Brooks
  • South Brooks

More Historic Weather Station data

Upgrade to MSW Pro to gain access to the past 30 days of data for over 8000 Wavebouys and Weather Stations around the globe.

Join Pro

Comparision Forecast

View Surf forecast
   
Ter 04/15 11:00 5.5ft 9s 13 16 mph 1013.9mb 49f 49f
10:00 6ft 12s 13 18 mph 1014.3mb 49f 49f
9:00 6ft 10s 13
mph
1014.2mb 49f 49f
8:00 6ft 9s 22 27 mph 1014.4mb 49f 48f
7:00 6ft 12s 16 20 mph 1015.4mb 48f 49f
6:00 6ft 13s 18 20 mph 1016.4mb 48f 48f
5:00 6ft 9s 16 22 mph 1016.8mb 48f 49f
4:00 6ft 10s 16 20 mph 1017.8mb 48f 49f
3:00 6ft 10s 13 16 mph 1018.4mb 48f 49f
2:00 6.5ft 10s 13 16 mph 1018.4mb 48f 49f
1:00 6.5ft 10s 11 13 mph 1018.8mb 48f 49f
12:00 7ft 10s 9 11 mph 1019.2mb 48f 49f
11:00 7.5ft 11s 7 9 mph 1019.5mb 48f 49f
10:00 8ft 10s 9 11 mph 1019.6mb 48f 49f
9:00 8ft 11s 7 9 mph 1019.6mb 48f 49f
8:00 8ft 10s 7 9 mph 1019.1mb 48f 49f
7:00 8ft 11s 11 13 mph 1019.1mb 48f 49f
6:00 8.5ft 12s 13 16 mph 1018.9mb 48f 49f
5:00 9ft 12s 13 18 mph 1019.1mb 48f 49f
4:00 9ft 11s 18 22 mph 1019.2mb 48f 49f
3:00 9ft 11s 18 22 mph 1019.3mb 48f 49f
2:00 10ft 12s 20 25 mph 1019.9mb 48f 48f
1:00 10ft 12s 18 25 mph 1020.3mb 48f 49f
12:00 11ft 13s 16 20 mph 1020.8mb 48f 48f
Seg 04/14 11:00 12ft 12s 16 18 mph 1021.2mb 48f 49f
10:00 13ft 13s 16 18 mph 1021.6mb 48f 49f
9:00 13ft 12s 13 18 mph 1021.6mb 48f 48f
7:00 10ft 13s 20 25 mph 1021.4mb 48f 49f
6:00 8ft 8s 13 18 mph 1021.9mb 48f 48f
5:00 7ft 7s 18 20 mph 1021.8mb 48f 49f
4:00 6.5ft 13s 20 25 mph 1021.7mb 48f 49f
3:00 5ft 5s 20 22 mph 1021.5mb 48f 49f
2:00 4.5ft 14s 18 20 mph 1021.6mb 48f 49f
1:00 5ft 14s 18 22 mph 1021.6mb 49f 47f
12:00 4.5ft 14s 16 20 mph 1021.9mb 48f 48f
11:00 4ft 14s 13 18 mph 1021.7mb 48f 49f
10:00 4.5ft 13s 16 18 mph 1020.5mb 49f 49f
9:00 4.5ft 14s 16 18 mph 1020mb 49f 48f
8:00 4ft 14s 13 16 mph 1019.9mb 49f 47f
7:00 4ft 14s 13 18 mph 1019.7mb 49f 48f
6:00 4ft 14s 13 18 mph 1019.6mb 49f 48f
5:00 4ft 14s 13 16 mph 1019.6mb 49f 48f
4:00 4ft 14s 7 9 mph 1019.7mb 49f 49f
3:00 3.5ft 14s 9
mph
1020mb 49f 49f
2:00 3.5ft 14s 11 13 mph 1020.3mb 49f 50f
1:00 3.5ft 14s 9 11 mph 1020.6mb 49f 50f
12:00 4ft 13s 9
mph
1021mb 49f 50f
Dom 04/13 11:00 4ft 14s 9 11 mph 1021.6mb 49f 51f
10:00 3.5ft 14s 7 9 mph 1022.7mb 49f 51f
9:00 4ft 14s 7 9 mph 1022.9mb 50f 51f
8:00 4ft 15s 7 9 mph 1023.1mb 50f 51f
7:00 4ft 14s 7 9 mph 1023.7mb 50f 51f
6:00 4ft 14s 7 9 mph 1024.7mb 50f 52f
5:00 4ft 14s 4 7 mph 1025.1mb 50f 51f
4:00 4.5ft 14s 4 7 mph 1025.9mb 50f 51f
3:00 4ft 14s 7 9 mph 1026.1mb 49f 51f
2:00 4ft 14s 7 9 mph 1026.5mb 49f 51f
1:00 4.5ft 14s 9 11 mph 1026.3mb 49f 51f
12:00 4.5ft 14s 7
mph
1026.5mb 49f 50f
11:00 4.5ft 10s 7
mph
1026.5mb 49f 50f
10:00 5ft 14s 7 9 mph 1026.2mb 48f 50f
9:00 5ft 14s 4 7 mph 1026.1mb 48f 50f
8:00 5ft 15s 9 13 mph 1025.7mb 47f 49f
7:00 5ft 15s 9 13 mph 1025.1mb 47f 49f
6:00 5ft 10s 7 9 mph 1025mb 47f 49f
5:00 5ft 15s 4 7 mph 1024.9mb 47f 49f
4:00 5ft 10s  -  2 mph 1024.7mb 47f 48f
3:00 5ft 15s 2 4 mph 1024.4mb 47f 48f
2:00 5ft 15s 2
mph
1024.1mb 47f 48f
1:00 5ft 11s 4 7 mph 1023.9mb 47f 48f
12:00 5.5ft 10s 9 11 mph 1023.5mb 47f 48f
Sáb 04/12 11:00 5.5ft 11s 7 9 mph 1023.4mb 47f 48f
10:00 6ft 11s 9 11 mph 1023.3mb 47f 48f
9:00 6ft 9s 13 16 mph 1023.1mb 47f 48f
8:00 5.5ft 10s 16 18 mph 1023.1mb 48f 48f
7:00 6ft 11s 16 18 mph 1022.9mb 48f 48f
6:00 6ft 10s 13 16 mph 1023.2mb 48f 49f
5:00 6ft 11s 11 13 mph 1023.2mb 48f 49f
4:00 5.5ft 10s 11 13 mph 1023.2mb 48f 49f
3:00 6ft 10s 11 13 mph 1023.2mb 48f 49f
2:00 6ft 11s 11 13 mph 1023.1mb 48f 49f
1:00 7ft 11s 13 16 mph 1023mb 48f 48f
12:00 7ft 9s 16 18 mph 1022.7mb 48f 47f
11:00 7.5ft 9s 18 20 mph 1022.1mb 47f 47f
10:00 8ft 10s 18 22 mph 1021.7mb 47f 46f
9:00  -   -  22
mph
- - -
8:00 9ft 10s 25 29 mph 1021.1mb 47f 46f